Maersk Visby — 9V8827 — position and weather

sailwx.info

Track history (hours):
 
Tides and Currents Weather Stations Pressure Air Temp Water Temp Dewpoint Dewpoint Depression Visibility Wind Speed Wind Dir Waves Ship Positions

Maersk Visby

Last reported at 2018-Apr-08 22:06 UTC. Time now 2018-Apr-19 21:24 UTC.
Position N 36°42' W 075°39'.
Warning: this ship's position is 10 days out of date.

Length 180 m; draft 9.2 m.

Type: Ship (hazmat cat A). MMSI: 564979000.

Date/timePositionNaut miles runAvg speedWind from/ knotsBaromVisibWave heightAir tempDewpointWater temp
2018-Apr-08 22:06N 36°42' W 075°39'111.7
2018-Apr-08 21:59N 36°43' W 075°40'510.5
2018-Apr-08 21:30N 36°47' W 075°44'5 9.7
2018-Apr-08 21:00N 36°50' W 075°49'5 9.8
2018-Apr-08 20:30N 36°53' W 075°53'5 9.7
2018-Apr-08 20:00N 36°56' W 075°58'510.8
2018-Apr-08 19:30N 36°58' W 076°04'816.1
2018-Apr-08 19:00N 37°00' W 076°14'612.3
2018-Apr-08 18:31N 36°57' W 076°20'5 9.9
2018-Apr-08 18:00N 36°52' W 076°19'0 0.8
2018-Apr-08 17:26N 36°51' W 076°19'0 0.0
2018-Apr-08 16:59N 36°51' W 076°19'0 0.0
2018-Apr-08 16:26N 36°51' W 076°19'0 0.0
2018-Apr-08 15:59N 36°51' W 076°19'0 0.0
2018-Apr-08 15:29N 36°51' W 076°19'0 0.0
2018-Apr-08 14:59N 36°51' W 076°19'0 0.0
2018-Apr-08 14:29N 36°51' W 076°19'0 0.0
2018-Apr-08 13:59N 36°51' W 076°19'0 0.0
2018-Apr-08 13:29N 36°51' W 076°19'0 0.0
2018-Apr-08 12:59N 36°51' W 076°19'0 0.0
2018-Apr-08 12:29N 36°51' W 076°19'0 0.0
2018-Apr-08 11:59N 36°51' W 076°19'0 0.0
2018-Apr-08 11:29N 36°51' W 076°19'0 0.0
2018-Apr-08 10:59N 36°51' W 076°19'0 0.0
2018-Apr-08 10:29N 36°51' W 076°19'0 0.8
2018-Apr-08 10:00N 36°52' W 076°19'4 7.8
2018-Apr-08 09:30N 36°55' W 076°20'11 8.5
2018-Apr-08 08:12N 36°59' W 076°07'316.1
2018-Apr-08 08:00N 36°58' W 076°03'3 6.0
2018-Apr-08 07:30N 37°01' W 076°02'5615.8
2018-Apr-08 03:56N 37°57' W 076°10'817.8
2018-Apr-08 03:29N 38°04' W 076°13'4017.4
2018-Apr-08 01:11N 38°43' W 076°26'417.7
2018-Apr-08 00:58N 38°47' W 076°25'818.0
2018-Apr-08 00:30N 38°55' W 076°23'816.3
2018-Apr-08 00:00N 39°03' W 076°23'714.9
2018-Apr-07 23:30N 39°10' W 076°26'611.8
2018-Apr-07 23:00N 39°14' W 076°32'2 3.8
2018-Apr-07 22:30N 39°15' W 076°33'0 0.0
2018-Apr-07 21:59N 39°15' W 076°33'0 0.0
2018-Apr-07 21:29N 39°15' W 076°33'0 0.0
2018-Apr-07 20:59N 39°15' W 076°33'0 0.0
2018-Apr-07 20:29N 39°15' W 076°33'0 0.0
2018-Apr-07 19:59N 39°15' W 076°33'0 0.0
2018-Apr-07 19:29N 39°15' W 076°33'0 0.0
2018-Apr-07 18:59N 39°15' W 076°33'0 0.0
2018-Apr-07 18:29N 39°15' W 076°33'0 0.0
2018-Apr-07 17:59N 39°15' W 076°33'0 0.0
2018-Apr-07 17:29N 39°15' W 076°33'0 0.0
2018-Apr-07 16:59N 39°15' W 076°33'0 0.0
2018-Apr-07 16:29N 39°15' W 076°33'0 0.0
2018-Apr-07 15:59N 39°15' W 076°33'0 0.0
2018-Apr-07 15:29N 39°15' W 076°33'0 0.0
2018-Apr-07 14:59N 39°15' W 076°33'0 0.0
2018-Apr-07 14:29N 39°15' W 076°33'0 0.0
2018-Apr-07 13:59N 39°15' W 076°33'0 0.0
2018-Apr-07 13:29N 39°15' W 076°33'0 0.0
2018-Apr-07 12:59N 39°15' W 076°33'0 0.0
2018-Apr-07 12:29N 39°15' W 076°33'0 0.0
2018-Apr-07 11:59N 39°15' W 076°33'0 0.0
2018-Apr-07 11:29N 39°15' W 076°33'0 0.0
2018-Apr-07 10:59N 39°15' W 076°33'0 0.1
2018-Apr-07 10:29N 39°15' W 076°33'0 0.1
2018-Apr-07 09:59N 39°15' W 076°33'0 0.0
2018-Apr-07 09:29N 39°15' W 076°33'2 3.6
2018-Apr-07 09:00N 39°14' W 076°32'4 7.7
2018-Apr-07 08:31N 39°11' W 076°28'611.5
2018-Apr-07 08:00N 39°07' W 076°24'713.8
2018-Apr-07 07:30N 39°00' W 076°23'917.0
2018-Apr-07 06:58N 38°51' W 076°24'817.7
2018-Apr-07 06:30N 38°43' W 076°26'10816.4
2018-Apr-06 23:55N 36°57' W 075°58'4 9.0
2018-Apr-06 23:30N 36°55' W 075°54'6 9.4
2018-Apr-06 22:55N 36°51' W 075°49'18011.6
2018-Apr-06 07:24N 39°27' W 073°54'512.7
2018-Apr-06 07:00N 39°32' W 073°53'812.3
2018-Apr-06 06:23N 39°40' W 073°52'712.4
2018-Apr-06 05:51N 39°46' W 073°52'412.3
2018-Apr-06 05:29N 39°51' W 073°51'1612.3
2018-Apr-06 04:10N 40°07' W 073°50'411.8
2018-Apr-06 03:50N 40°11' W 073°50'410.1
2018-Apr-06 03:29N 40°15' W 073°50'510.0
2018-Apr-06 02:59N 40°19' W 073°49'510.0
2018-Apr-06 02:30N 40°24' W 073°49'5 9.6
2018-Apr-06 02:00N 40°28' W 073°52'611.3
2018-Apr-06 01:30N 40°31' W 073°59'713.4
2018-Apr-06 01:00N 40°37' W 074°03'4 7.6
2018-Apr-06 00:30N 40°39' W 074°07'3 5.2
2018-Apr-06 00:00N 40°41' W 074°09'0 0.6
2018-Apr-05 23:28N 40°41' W 074°09'0 0.0
2018-Apr-05 22:58N 40°41' W 074°09'0 0.0
2018-Apr-05 22:28N 40°41' W 074°09'0 0.0
2018-Apr-05 21:58N 40°41' W 074°09'0 0.2
2018-Apr-05 21:28N 40°41' W 074°09'0 0.2
2018-Apr-05 20:58N 40°41' W 074°09'0 0.1
2018-Apr-05 20:28N 40°41' W 074°09'0 0.0
2018-Apr-05 19:58N 40°41' W 074°09'0 0.0
2018-Apr-05 19:28N 40°41' W 074°09'0 0.0
2018-Apr-05 18:58N 40°41' W 074°09'0 0.0
2018-Apr-05 18:28N 40°41' W 074°09'0 0.0
2018-Apr-05 17:58N 40°41' W 074°09'0 0.0
2018-Apr-05 17:28N 40°41' W 074°09'0 0.0
2018-Apr-05 16:58N 40°41' W 074°09'0 0.0
2018-Apr-05 16:28N 40°41' W 074°09'0 0.0
2018-Apr-05 15:58N 40°41' W 074°09'0 0.1
2018-Apr-05 15:28N 40°41' W 074°09'0 0.0
2018-Apr-05 14:58N 40°41' W 074°09'0 0.0
2018-Apr-05 14:28N 40°41' W 074°09'0 0.0
2018-Apr-05 13:58N 40°41' W 074°09'0 0.0
2018-Apr-05 13:28N 40°41' W 074°09'0 0.0
2018-Apr-05 12:58N 40°41' W 074°09'0 0.0
2018-Apr-05 12:28N 40°41' W 074°09'0 0.0
2018-Apr-05 11:58N 40°41' W 074°09'0 0.0
2018-Apr-05 11:28N 40°41' W 074°09'0 0.0
2018-Apr-05 10:58N 40°41' W 074°09'0 0.0
2018-Apr-05 10:28N 40°41' W 074°09'0 0.0
2018-Apr-05 09:58N 40°41' W 074°09'0 0.0
2018-Apr-05 09:28N 40°41' W 074°09'0 0.0
2018-Apr-05 08:58N 40°41' W 074°09'0 0.0
2018-Apr-05 08:28N 40°41' W 074°09'0 0.0
2018-Apr-05 07:58N 40°41' W 074°09'0 0.0
2018-Apr-05 07:28N 40°41' W 074°09'0 0.0
2018-Apr-05 06:58N 40°41' W 074°09'0 0.0
2018-Apr-05 06:28N 40°41' W 074°09'0 0.0
2018-Apr-05 05:58N 40°41' W 074°09'0 0.0
2018-Apr-05 05:28N 40°41' W 074°09'0 0.0
2018-Apr-05 04:58N 40°41' W 074°09'0 0.0
2018-Apr-05 04:25N 40°41' W 074°09'0 0.1
2018-Apr-05 03:58N 40°41' W 074°09'0 0.0
2018-Apr-05 03:28N 40°41' W 074°09'0 0.0
2018-Apr-05 02:58N 40°41' W 074°09'0 0.0
2018-Apr-05 02:28N 40°41' W 074°09'0 0.0
2018-Apr-05 01:58N 40°41' W 074°09'0 0.0
2018-Apr-05 01:28N 40°41' W 074°09'0 0.0
2018-Apr-05 00:58N 40°41' W 074°09'0 0.0
2018-Apr-05 00:28N 40°41' W 074°09'0 0.0
2018-Apr-04 23:58N 40°41' W 074°09'0 0.0
2018-Apr-04 23:28N 40°41' W 074°09'0 0.0
2018-Apr-04 22:58N 40°41' W 074°09'0 0.0
2018-Apr-04 22:28N 40°41' W 074°09'0 0.0
2018-Apr-04 21:58N 40°41' W 074°09'0 0.1
2018-Apr-04 21:28N 40°41' W 074°09'0 0.1
2018-Apr-04 20:58N 40°41' W 074°09'2 4.2
2018-Apr-04 20:30N 40°39' W 074°09'2 3.0
2018-Apr-04 20:00N 40°39' W 074°07'3 5.8
2018-Apr-04 19:30N 40°38' W 074°03'4 8.6
2018-Apr-04 19:00N 40°34' W 074°02'611.5
2018-Apr-04 18:30N 40°30' W 073°56'712.5
2018-Apr-04 17:58N 40°27' W 073°48'4 8.4
2018-Apr-04 17:28N 40°28' W 073°43'3 5.3
2018-Apr-04 16:54N 40°29' W 073°39'0 0.0
2018-Apr-04 15:30N 40°29' W 073°39'0 0.0
2018-Apr-04 12:39N 40°29' W 073°39'0 0.1
2018-Apr-04 12:15N 40°29' W 073°39'0 0.0
2018-Apr-04 11:57N 40°29' W 073°39'0 0.0
2018-Apr-04 11:24N 40°29' W 073°39'0 0.0
2018-Apr-04 06:20N 40°29' W 073°39'3 6.3
2018-Apr-04 05:50N 40°27' W 073°42'  
Track history (hours):
 
Tides and Currents Weather Stations Pressure Air Temp Water Temp Dewpoint Dewpoint Depression Visibility Wind Speed Wind Dir Waves Ship Positions

Maersk Visby

Last reported at 2018-Apr-08 22:06 UTC. Time now 2018-Apr-19 21:24 UTC.
Position N 36°42' W 075°39'.
Warning: this ship's position is 10 days out of date.

Length 180 m; draft 9.2 m.

Type: Ship (hazmat cat A). MMSI: 564979000.

Date/timePositionNaut miles runAvg speedWind from/ knotsBaromVisibWave heightAir tempDewpointWater temp
2018-Apr-08 22:06N 36°42' W 075°39'111.7
2018-Apr-08 21:59N 36°43' W 075°40'510.5
2018-Apr-08 21:30N 36°47' W 075°44'5 9.7
2018-Apr-08 21:00N 36°50' W 075°49'5 9.8
2018-Apr-08 20:30N 36°53' W 075°53'5 9.7
2018-Apr-08 20:00N 36°56' W 075°58'510.8
2018-Apr-08 19:30N 36°58' W 076°04'816.1
2018-Apr-08 19:00N 37°00' W 076°14'612.3
2018-Apr-08 18:31N 36°57' W 076°20'5 9.9
2018-Apr-08 18:00N 36°52' W 076°19'0 0.8
2018-Apr-08 17:26N 36°51' W 076°19'0 0.0
2018-Apr-08 16:59N 36°51' W 076°19'0 0.0
2018-Apr-08 16:26N 36°51' W 076°19'0 0.0
2018-Apr-08 15:59N 36°51' W 076°19'0 0.0
2018-Apr-08 15:29N 36°51' W 076°19'0 0.0
2018-Apr-08 14:59N 36°51' W 076°19'0 0.0
2018-Apr-08 14:29N 36°51' W 076°19'0 0.0
2018-Apr-08 13:59N 36°51' W 076°19'0 0.0
2018-Apr-08 13:29N 36°51' W 076°19'0 0.0
2018-Apr-08 12:59N 36°51' W 076°19'0 0.0
2018-Apr-08 12:29N 36°51' W 076°19'0 0.0
2018-Apr-08 11:59N 36°51' W 076°19'0 0.0
2018-Apr-08 11:29N 36°51' W 076°19'0 0.0
2018-Apr-08 10:59N 36°51' W 076°19'0 0.0
2018-Apr-08 10:29N 36°51' W 076°19'0 0.8
2018-Apr-08 10:00N 36°52' W 076°19'4 7.8
2018-Apr-08 09:30N 36°55' W 076°20'11 8.5
2018-Apr-08 08:12N 36°59' W 076°07'316.1
2018-Apr-08 08:00N 36°58' W 076°03'3 6.0
2018-Apr-08 07:30N 37°01' W 076°02'5615.8
2018-Apr-08 03:56N 37°57' W 076°10'817.8
2018-Apr-08 03:29N 38°04' W 076°13'4017.4
2018-Apr-08 01:11N 38°43' W 076°26'417.7
2018-Apr-08 00:58N 38°47' W 076°25'818.0
2018-Apr-08 00:30N 38°55' W 076°23'816.3
2018-Apr-08 00:00N 39°03' W 076°23'714.9
2018-Apr-07 23:30N 39°10' W 076°26'611.8
2018-Apr-07 23:00N 39°14' W 076°32'2 3.8
2018-Apr-07 22:30N 39°15' W 076°33'0 0.0
2018-Apr-07 21:59N 39°15' W 076°33'0 0.0
2018-Apr-07 21:29N 39°15' W 076°33'0 0.0
2018-Apr-07 20:59N 39°15' W 076°33'0 0.0
2018-Apr-07 20:29N 39°15' W 076°33'0 0.0
2018-Apr-07 19:59N 39°15' W 076°33'0 0.0
2018-Apr-07 19:29N 39°15' W 076°33'0 0.0
2018-Apr-07 18:59N 39°15' W 076°33'0 0.0
2018-Apr-07 18:29N 39°15' W 076°33'0 0.0
2018-Apr-07 17:59N 39°15' W 076°33'0 0.0
2018-Apr-07 17:29N 39°15' W 076°33'0 0.0
2018-Apr-07 16:59N 39°15' W 076°33'0 0.0
2018-Apr-07 16:29N 39°15' W 076°33'0 0.0
2018-Apr-07 15:59N 39°15' W 076°33'0 0.0
2018-Apr-07 15:29N 39°15' W 076°33'0 0.0
2018-Apr-07 14:59N 39°15' W 076°33'0 0.0
2018-Apr-07 14:29N 39°15' W 076°33'0 0.0
2018-Apr-07 13:59N 39°15' W 076°33'0 0.0
2018-Apr-07 13:29N 39°15' W 076°33'0 0.0
2018-Apr-07 12:59N 39°15' W 076°33'0 0.0
2018-Apr-07 12:29N 39°15' W 076°33'0 0.0
2018-Apr-07 11:59N 39°15' W 076°33'0 0.0
2018-Apr-07 11:29N 39°15' W 076°33'0 0.0
2018-Apr-07 10:59N 39°15' W 076°33'0 0.1
2018-Apr-07 10:29N 39°15' W 076°33'0 0.1
2018-Apr-07 09:59N 39°15' W 076°33'0 0.0
2018-Apr-07 09:29N 39°15' W 076°33'2 3.6
2018-Apr-07 09:00N 39°14' W 076°32'4 7.7
2018-Apr-07 08:31N 39°11' W 076°28'611.5
2018-Apr-07 08:00N 39°07' W 076°24'713.8
2018-Apr-07 07:30N 39°00' W 076°23'917.0
2018-Apr-07 06:58N 38°51' W 076°24'817.7
2018-Apr-07 06:30N 38°43' W 076°26'10816.4
2018-Apr-06 23:55N 36°57' W 075°58'4 9.0
2018-Apr-06 23:30N 36°55' W 075°54'6 9.4
2018-Apr-06 22:55N 36°51' W 075°49'18011.6
2018-Apr-06 07:24N 39°27' W 073°54'512.7
2018-Apr-06 07:00N 39°32' W 073°53'812.3
2018-Apr-06 06:23N 39°40' W 073°52'712.4
2018-Apr-06 05:51N 39°46' W 073°52'412.3
2018-Apr-06 05:29N 39°51' W 073°51'1612.3
2018-Apr-06 04:10N 40°07' W 073°50'411.8
2018-Apr-06 03:50N 40°11' W 073°50'410.1
2018-Apr-06 03:29N 40°15' W 073°50'510.0
2018-Apr-06 02:59N 40°19' W 073°49'510.0
2018-Apr-06 02:30N 40°24' W 073°49'5 9.6
2018-Apr-06 02:00N 40°28' W 073°52'611.3
2018-Apr-06 01:30N 40°31' W 073°59'713.4
2018-Apr-06 01:00N 40°37' W 074°03'4 7.6
2018-Apr-06 00:30N 40°39' W 074°07'3 5.2
2018-Apr-06 00:00N 40°41' W 074°09'0 0.6
2018-Apr-05 23:28N 40°41' W 074°09'0 0.0
2018-Apr-05 22:58N 40°41' W 074°09'0 0.0
2018-Apr-05 22:28N 40°41' W 074°09'0 0.0
2018-Apr-05 21:58N 40°41' W 074°09'0 0.2
2018-Apr-05 21:28N 40°41' W 074°09'0 0.2
2018-Apr-05 20:58N 40°41' W 074°09'0 0.1
2018-Apr-05 20:28N 40°41' W 074°09'0 0.0
2018-Apr-05 19:58N 40°41' W 074°09'0 0.0
2018-Apr-05 19:28N 40°41' W 074°09'0 0.0
2018-Apr-05 18:58N 40°41' W 074°09'0 0.0
2018-Apr-05 18:28N 40°41' W 074°09'0 0.0
2018-Apr-05 17:58N 40°41' W 074°09'0 0.0
2018-Apr-05 17:28N 40°41' W 074°09'0 0.0
2018-Apr-05 16:58N 40°41' W 074°09'0 0.0
2018-Apr-05 16:28N 40°41' W 074°09'0 0.0
2018-Apr-05 15:58N 40°41' W 074°09'0 0.1
2018-Apr-05 15:28N 40°41' W 074°09'0 0.0
2018-Apr-05 14:58N 40°41' W 074°09'0 0.0
2018-Apr-05 14:28N 40°41' W 074°09'0 0.0
2018-Apr-05 13:58N 40°41' W 074°09'0 0.0
2018-Apr-05 13:28N 40°41' W 074°09'0 0.0
2018-Apr-05 12:58N 40°41' W 074°09'0 0.0
2018-Apr-05 12:28N 40°41' W 074°09'0 0.0
2018-Apr-05 11:58N 40°41' W 074°09'0 0.0
2018-Apr-05 11:28N 40°41' W 074°09'0 0.0
2018-Apr-05 10:58N 40°41' W 074°09'0 0.0
2018-Apr-05 10:28N 40°41' W 074°09'0 0.0
2018-Apr-05 09:58N 40°41' W 074°09'0 0.0
2018-Apr-05 09:28N 40°41' W 074°09'0 0.0
2018-Apr-05 08:58N 40°41' W 074°09'0 0.0
2018-Apr-05 08:28N 40°41' W 074°09'0 0.0
2018-Apr-05 07:58N 40°41' W 074°09'0 0.0
2018-Apr-05 07:28N 40°41' W 074°09'0 0.0
2018-Apr-05 06:58N 40°41' W 074°09'0 0.0
2018-Apr-05 06:28N 40°41' W 074°09'0 0.0
2018-Apr-05 05:58N 40°41' W 074°09'0 0.0
2018-Apr-05 05:28N 40°41' W 074°09'0 0.0
2018-Apr-05 04:58N 40°41' W 074°09'0 0.0
2018-Apr-05 04:25N 40°41' W 074°09'0 0.1
2018-Apr-05 03:58N 40°41' W 074°09'0 0.0
2018-Apr-05 03:28N 40°41' W 074°09'0 0.0
2018-Apr-05 02:58N 40°41' W 074°09'0 0.0
2018-Apr-05 02:28N 40°41' W 074°09'0 0.0
2018-Apr-05 01:58N 40°41' W 074°09'0 0.0
2018-Apr-05 01:28N 40°41' W 074°09'0 0.0
2018-Apr-05 00:58N 40°41' W 074°09'0 0.0
2018-Apr-05 00:28N 40°41' W 074°09'0 0.0
2018-Apr-04 23:58N 40°41' W 074°09'0 0.0
2018-Apr-04 23:28N 40°41' W 074°09'0 0.0
2018-Apr-04 22:58N 40°41' W 074°09'0 0.0
2018-Apr-04 22:28N 40°41' W 074°09'0 0.0
2018-Apr-04 21:58N 40°41' W 074°09'0 0.1
2018-Apr-04 21:28N 40°41' W 074°09'0 0.1
2018-Apr-04 20:58N 40°41' W 074°09'2 4.2
2018-Apr-04 20:30N 40°39' W 074°09'2 3.0
2018-Apr-04 20:00N 40°39' W 074°07'3 5.8
2018-Apr-04 19:30N 40°38' W 074°03'4 8.6
2018-Apr-04 19:00N 40°34' W 074°02'611.5
2018-Apr-04 18:30N 40°30' W 073°56'712.5
2018-Apr-04 17:58N 40°27' W 073°48'4 8.4
2018-Apr-04 17:28N 40°28' W 073°43'3 5.3
2018-Apr-04 16:54N 40°29' W 073°39'0 0.0
2018-Apr-04 15:30N 40°29' W 073°39'0 0.0
2018-Apr-04 12:39N 40°29' W 073°39'0 0.1
2018-Apr-04 12:15N 40°29' W 073°39'0 0.0
2018-Apr-04 11:57N 40°29' W 073°39'0 0.0
2018-Apr-04 11:24N 40°29' W 073°39'0 0.0
2018-Apr-04 06:20N 40°29' W 073°39'3 6.3
2018-Apr-04 05:50N 40°27' W 073°42'  

Dump ship's entire track history